sensor_id;sensor_type;location;lat;lon;timestamp;P1;durP1;ratioP1;P2;durP2;ratioP2
16430;SDS011;8325;49.284;7.238;2022-11-04T05:04:03;2.30;;;1.30;;
16430;SDS011;8325;49.284;7.238;2022-11-04T05:08:15;1.90;;;1.33;;
16430;SDS011;8325;49.284;7.238;2022-11-04T05:12:26;4.70;;;1.13;;
16430;SDS011;8325;49.284;7.238;2022-11-04T05:16:58;2.75;;;1.10;;
16430;SDS011;8325;49.284;7.238;2022-11-04T05:21:11;2.85;;;1.27;;
16430;SDS011;8325;49.284;7.238;2022-11-04T05:25:24;1.95;;;1.10;;
16430;SDS011;8325;49.284;7.238;2022-11-04T05:29:35;2.42;;;1.10;;
16430;SDS011;8325;49.284;7.238;2022-11-04T05:33:47;2.33;;;1.15;;
16430;SDS011;8325;49.284;7.238;2022-11-04T05:37:59;3.20;;;1.10;;
16430;SDS011;8325;49.284;7.238;2022-11-04T05:42:11;3.42;;;1.23;;
16430;SDS011;8325;49.284;7.238;2022-11-04T05:46:22;2.83;;;1.15;;
16430;SDS011;8325;49.284;7.238;2022-11-04T05:50:34;5.40;;;2.08;;
16430;SDS011;8325;49.284;7.238;2022-11-04T05:54:45;2.80;;;1.58;;
16430;SDS011;8325;49.284;7.238;2022-11-04T05:58:57;3.70;;;1.45;;
16430;SDS011;8325;49.284;7.238;2022-11-04T06:03:09;3.13;;;1.52;;
16430;SDS011;8325;49.284;7.238;2022-11-04T06:07:26;3.78;;;2.15;;
16430;SDS011;8325;49.284;7.238;2022-11-04T06:11:37;5.57;;;1.88;;
16430;SDS011;8325;49.284;7.238;2022-11-04T06:15:49;2.80;;;1.40;;
16430;SDS011;8325;49.284;7.238;2022-11-04T06:20:01;2.05;;;1.45;;
16430;SDS011;8325;49.284;7.238;2022-11-04T06:24:12;2.75;;;1.30;;
16430;SDS011;8325;49.284;7.238;2022-11-04T06:28:24;2.38;;;1.08;;
16430;SDS011;8325;49.284;7.238;2022-11-04T06:32:35;1.95;;;1.20;;
16430;SDS011;8325;49.284;7.238;2022-11-04T06:36:50;2.65;;;1.17;;
16430;SDS011;8325;49.284;7.238;2022-11-04T06:41:01;4.60;;;1.50;;
16430;SDS011;8325;49.284;7.238;2022-11-04T06:45:14;1.55;;;1.20;;
16430;SDS011;8325;49.284;7.238;2022-11-04T06:49:25;3.70;;;1.30;;
16430;SDS011;8325;49.284;7.238;2022-11-04T06:53:37;5.50;;;1.40;;
16430;SDS011;8325;49.284;7.238;2022-11-04T06:57:48;3.63;;;1.50;;
16430;SDS011;8325;49.284;7.238;2022-11-04T07:02:00;4.15;;;1.50;;
16430;SDS011;8325;49.284;7.238;2022-11-04T07:06:12;3.13;;;1.55;;
16430;SDS011;8325;49.284;7.238;2022-11-04T07:10:23;4.00;;;1.52;;
16430;SDS011;8325;49.284;7.238;2022-11-04T07:14:35;1.90;;;1.45;;
16430;SDS011;8325;49.284;7.238;2022-11-04T07:18:46;2.35;;;1.60;;
16430;SDS011;8325;49.284;7.238;2022-11-04T07:22:59;8.27;;;1.70;;
16430;SDS011;8325;49.284;7.238;2022-11-04T07:27:11;2.97;;;1.42;;
16430;SDS011;8325;49.284;7.238;2022-11-04T07:31:22;2.85;;;1.50;;
16430;SDS011;8325;49.284;7.238;2022-11-04T07:35:34;4.75;;;1.30;;
16430;SDS011;8325;49.284;7.238;2022-11-04T07:39:46;4.82;;;1.70;;
16430;SDS011;8325;49.284;7.238;2022-11-04T07:43:58;4.38;;;1.42;;
16430;SDS011;8325;49.284;7.238;2022-11-04T07:48:11;5.07;;;1.55;;
16430;SDS011;8325;49.284;7.238;2022-11-04T07:52:23;3.20;;;1.23;;
16430;SDS011;8325;49.284;7.238;2022-11-04T07:56:35;5.05;;;1.60;;
16430;SDS011;8325;49.284;7.238;2022-11-04T08:00:47;4.32;;;1.50;;
16430;SDS011;8325;49.284;7.238;2022-11-04T08:04:59;5.75;;;1.73;;
16430;SDS011;8325;49.284;7.238;2022-11-04T08:09:11;7.15;;;1.85;;
16430;SDS011;8325;49.284;7.238;2022-11-04T08:13:26;4.10;;;1.27;;
16430;SDS011;8325;49.284;7.238;2022-11-04T08:17:38;3.17;;;1.33;;
16430;SDS011;8325;49.284;7.238;2022-11-04T08:21:50;2.75;;;1.52;;
16430;SDS011;8325;49.284;7.238;2022-11-04T08:26:05;3.45;;;1.50;;
16430;SDS011;8325;49.284;7.238;2022-11-04T08:30:18;4.18;;;1.45;;
16430;SDS011;8325;49.284;7.238;2022-11-04T08:34:30;5.30;;;1.73;;
16430;SDS011;8325;49.284;7.238;2022-11-04T08:38:42;4.90;;;1.70;;
16430;SDS011;8325;49.284;7.238;2022-11-04T08:42:54;2.28;;;1.17;;
16430;SDS011;8325;49.284;7.238;2022-11-04T08:47:05;2.55;;;1.80;;
16430;SDS011;8325;49.284;7.238;2022-11-04T08:51:18;7.90;;;3.20;;
16430;SDS011;8325;49.284;7.238;2022-11-04T08:55:32;4.93;;;1.80;;
16430;SDS011;8325;49.284;7.238;2022-11-04T08:59:43;4.00;;;1.63;;
16430;SDS011;8325;49.284;7.238;2022-11-04T09:03:55;5.75;;;1.77;;
16430;SDS011;8325;49.284;7.238;2022-11-04T09:08:07;4.50;;;1.70;;
16430;SDS011;8325;49.284;7.238;2022-11-04T09:12:19;4.20;;;2.30;;
16430;SDS011;8325;49.284;7.238;2022-11-04T09:16:31;3.97;;;2.08;;
16430;SDS011;8325;49.284;7.238;2022-11-04T09:20:43;4.38;;;2.00;;
16430;SDS011;8325;49.284;7.238;2022-11-04T09:24:55;6.32;;;2.15;;
16430;SDS011;8325;49.284;7.238;2022-11-04T09:29:07;4.78;;;2.00;;
16430;SDS011;8325;49.284;7.238;2022-11-04T09:33:20;5.63;;;2.40;;
16430;SDS011;8325;49.284;7.238;2022-11-04T09:37:31;4.82;;;2.08;;
16430;SDS011;8325;49.284;7.238;2022-11-04T09:46:16;5.68;;;2.28;;
16430;SDS011;8325;49.284;7.238;2022-11-04T09:50:29;5.47;;;1.60;;
16430;SDS011;8325;49.284;7.238;2022-11-04T09:54:52;2.25;;;1.38;;
16430;SDS011;8325;49.284;7.238;2022-11-04T09:59:09;2.13;;;1.27;;
16430;SDS011;8325;49.284;7.238;2022-11-04T10:12:37;3.78;;;1.30;;
16430;SDS011;8325;49.284;7.238;2022-11-04T10:21:46;3.08;;;1.15;;
16430;SDS011;8325;49.284;7.238;2022-11-04T10:26:12;4.47;;;1.55;;
16430;SDS011;8325;49.284;7.238;2022-11-04T10:30:29;2.22;;;1.55;;
16430;SDS011;8325;49.284;7.238;2022-11-04T10:39:08;4.68;;;2.38;;
16430;SDS011;8325;49.284;7.238;2022-11-04T10:43:32;7.82;;;2.70;;
16430;SDS011;8325;49.284;7.238;2022-11-04T10:47:50;2.58;;;1.42;;
16430;SDS011;8325;49.284;7.238;2022-11-04T10:52:10;2.88;;;1.13;;
16430;SDS011;8325;49.284;7.238;2022-11-04T10:56:55;2.15;;;1.20;;
16430;SDS011;8325;49.284;7.238;2022-11-04T11:05:39;4.10;;;1.60;;
16430;SDS011;8325;49.284;7.238;2022-11-04T11:09:51;2.53;;;1.38;;
16430;SDS011;8325;49.284;7.238;2022-11-04T11:14:14;3.75;;;1.33;;
16430;SDS011;8325;49.284;7.238;2022-11-04T11:18:27;11.13;;;7.40;;
16430;SDS011;8325;49.284;7.238;2022-11-04T11:22:40;3.05;;;1.00;;
16430;SDS011;8325;49.284;7.238;2022-11-04T11:26:56;4.68;;;1.83;;
16430;SDS011;8325;49.284;7.238;2022-11-04T11:31:11;2.25;;;1.13;;
16430;SDS011;8325;49.284;7.238;2022-11-04T11:35:34;2.95;;;1.50;;
16430;SDS011;8325;49.284;7.238;2022-11-04T11:39:52;7.20;;;1.92;;
16430;SDS011;8325;49.284;7.238;2022-11-04T11:44:16;4.88;;;1.60;;
16430;SDS011;8325;49.284;7.238;2022-11-04T11:48:42;3.78;;;1.73;;
16430;SDS011;8325;49.284;7.238;2022-11-04T11:53:14;3.00;;;1.50;;
16430;SDS011;8325;49.284;7.238;2022-11-04T11:57:32;4.50;;;2.20;;
16430;SDS011;8325;49.284;7.238;2022-11-04T12:02:33;3.05;;;1.65;;
16430;SDS011;8325;49.284;7.238;2022-11-04T12:07:07;3.25;;;1.00;;
16430;SDS011;8325;49.284;7.238;2022-11-04T12:16:39;4.38;;;1.35;;
16430;SDS011;8325;49.284;7.238;2022-11-04T12:21:12;4.20;;;1.23;;
16430;SDS011;8325;49.284;7.238;2022-11-04T12:25:37;2.78;;;1.10;;
16430;SDS011;8325;49.284;7.238;2022-11-04T12:30:15;2.80;;;1.27;;
16430;SDS011;8325;49.284;7.238;2022-11-04T12:48:22;3.38;;;1.95;;
16430;SDS011;8325;49.284;7.238;2022-11-04T12:52:55;1.88;;;1.05;;
16430;SDS011;8325;49.284;7.238;2022-11-04T13:01:38;4.38;;;1.60;;
16430;SDS011;8325;49.284;7.238;2022-11-04T13:06:04;2.63;;;1.30;;
16430;SDS011;8325;49.284;7.238;2022-11-04T13:10:25;2.75;;;1.08;;
16430;SDS011;8325;49.284;7.238;2022-11-04T13:18:57;3.25;;;1.40;;
16430;SDS011;8325;49.284;7.238;2022-11-04T13:23:17;4.38;;;1.40;;
16430;SDS011;8325;49.284;7.238;2022-11-04T13:27:44;3.78;;;1.40;;
16430;SDS011;8325;49.284;7.238;2022-11-04T13:32:02;2.50;;;1.63;;
16430;SDS011;8325;49.284;7.238;2022-11-04T13:41:37;3.20;;;2.47;;
16430;SDS011;8325;49.284;7.238;2022-11-04T13:45:55;3.40;;;1.70;;
16430;SDS011;8325;49.284;7.238;2022-11-04T13:50:15;3.63;;;2.15;;
16430;SDS011;8325;49.284;7.238;2022-11-04T13:54:40;2.53;;;1.30;;
16430;SDS011;8325;49.284;7.238;2022-11-04T13:59:04;1.58;;;1.15;;
16430;SDS011;8325;49.284;7.238;2022-11-04T14:20:36;3.03;;;2.25;;
16430;SDS011;8325;49.284;7.238;2022-11-04T14:24:53;6.38;;;2.70;;
16430;SDS011;8325;49.284;7.238;2022-11-04T14:29:07;5.45;;;3.58;;
16430;SDS011;8325;49.284;7.238;2022-11-04T14:38:15;7.80;;;5.75;;
16430;SDS011;8325;49.284;7.238;2022-11-04T14:42:40;6.72;;;3.17;;
16430;SDS011;8325;49.284;7.238;2022-11-04T14:47:06;4.80;;;2.60;;
16430;SDS011;8325;49.284;7.238;2022-11-04T14:51:28;4.97;;;2.40;;
16430;SDS011;8325;49.284;7.238;2022-11-04T14:55:42;4.70;;;1.95;;
16430;SDS011;8325;49.284;7.238;2022-11-04T14:59:54;2.88;;;1.80;;
16430;SDS011;8325;49.284;7.238;2022-11-04T15:12:58;2.50;;;2.13;;
16430;SDS011;8325;49.284;7.238;2022-11-04T15:17:14;3.88;;;1.92;;
16430;SDS011;8325;49.284;7.238;2022-11-04T15:21:29;3.85;;;2.22;;
16430;SDS011;8325;49.284;7.238;2022-11-04T15:25:44;3.17;;;2.50;;
16430;SDS011;8325;49.284;7.238;2022-11-04T15:30:02;7.35;;;5.30;;
16430;SDS011;8325;49.284;7.238;2022-11-04T15:34:17;23.17;;;18.80;;
16430;SDS011;8325;49.284;7.238;2022-11-04T15:38:29;9.73;;;7.88;;
16430;SDS011;8325;49.284;7.238;2022-11-04T15:42:42;9.40;;;5.18;;
16430;SDS011;8325;49.284;7.238;2022-11-04T15:46:56;4.47;;;3.40;;
16430;SDS011;8325;49.284;7.238;2022-11-04T15:55:24;6.43;;;2.80;;
16430;SDS011;8325;49.284;7.238;2022-11-04T15:59:37;3.50;;;2.65;;
16430;SDS011;8325;49.284;7.238;2022-11-04T16:03:55;3.58;;;2.20;;
16430;SDS011;8325;49.284;7.238;2022-11-04T16:08:13;3.90;;;2.30;;
16430;SDS011;8325;49.284;7.238;2022-11-04T16:12:34;4.43;;;2.60;;
16430;SDS011;8325;49.284;7.238;2022-11-04T16:16:46;5.78;;;3.25;;
16430;SDS011;8325;49.284;7.238;2022-11-04T16:21:01;5.28;;;3.63;;
16430;SDS011;8325;49.284;7.238;2022-11-04T16:25:20;6.07;;;3.90;;
16430;SDS011;8325;49.284;7.238;2022-11-04T16:29:34;5.07;;;3.80;;
16430;SDS011;8325;49.284;7.238;2022-11-04T16:33:48;5.05;;;4.00;;
16430;SDS011;8325;49.284;7.238;2022-11-04T16:38:00;11.10;;;8.40;;
16430;SDS011;8325;49.284;7.238;2022-11-04T16:42:12;16.92;;;8.80;;
16430;SDS011;8325;49.284;7.238;2022-11-04T16:46:25;38.25;;;24.27;;
16430;SDS011;8325;49.284;7.238;2022-11-04T16:50:37;23.13;;;15.55;;
16430;SDS011;8325;49.284;7.238;2022-11-04T16:54:48;14.95;;;11.55;;
16430;SDS011;8325;49.284;7.238;2022-11-04T16:59:00;16.85;;;11.90;;
16430;SDS011;8325;49.284;7.238;2022-11-04T17:03:13;18.80;;;11.45;;
16430;SDS011;8325;49.284;7.238;2022-11-04T17:07:33;14.20;;;9.27;;
16430;SDS011;8325;49.284;7.238;2022-11-04T17:12:04;13.68;;;9.27;;
16430;SDS011;8325;49.284;7.238;2022-11-04T17:20:53;16.45;;;12.65;;
16430;SDS011;8325;49.284;7.238;2022-11-04T17:25:13;12.43;;;8.85;;
16430;SDS011;8325;49.284;7.238;2022-11-04T17:29:27;10.57;;;6.65;;
16430;SDS011;8325;49.284;7.238;2022-11-04T17:33:40;10.02;;;7.18;;
16430;SDS011;8325;49.284;7.238;2022-11-04T17:37:52;10.55;;;7.50;;
16430;SDS011;8325;49.284;7.238;2022-11-04T17:42:04;12.85;;;7.47;;
16430;SDS011;8325;49.284;7.238;2022-11-04T17:46:34;17.20;;;9.57;;
16430;SDS011;8325;49.284;7.238;2022-11-04T17:50:49;18.08;;;10.90;;
16430;SDS011;8325;49.284;7.238;2022-11-04T17:55:02;16.63;;;9.70;;
16430;SDS011;8325;49.284;7.238;2022-11-04T17:59:15;11.63;;;7.22;;
16430;SDS011;8325;49.284;7.238;2022-11-04T18:03:27;10.02;;;6.32;;
16430;SDS011;8325;49.284;7.238;2022-11-04T18:07:41;8.38;;;6.43;;
16430;SDS011;8325;49.284;7.238;2022-11-04T18:11:54;9.88;;;7.07;;
16430;SDS011;8325;49.284;7.238;2022-11-04T18:16:24;7.85;;;6.70;;
16430;SDS011;8325;49.284;7.238;2022-11-04T18:20:36;10.90;;;6.38;;
16430;SDS011;8325;49.284;7.238;2022-11-04T18:24:48;14.40;;;8.65;;
16430;SDS011;8325;49.284;7.238;2022-11-04T18:29:00;15.68;;;10.38;;
16430;SDS011;8325;49.284;7.238;2022-11-04T18:33:12;18.80;;;13.07;;
16430;SDS011;8325;49.284;7.238;2022-11-04T18:37:23;15.93;;;10.07;;
16430;SDS011;8325;49.284;7.238;2022-11-04T18:41:35;13.57;;;8.30;;
16430;SDS011;8325;49.284;7.238;2022-11-04T18:45:49;10.02;;;8.02;;
16430;SDS011;8325;49.284;7.238;2022-11-04T18:50:03;14.85;;;9.30;;
16430;SDS011;8325;49.284;7.238;2022-11-04T18:54:15;12.48;;;9.63;;
16430;SDS011;8325;49.284;7.238;2022-11-04T18:58:29;13.93;;;7.90;;
16430;SDS011;8325;49.284;7.238;2022-11-04T19:02:41;11.10;;;7.00;;
16430;SDS011;8325;49.284;7.238;2022-11-04T19:06:53;8.45;;;6.20;;
16430;SDS011;8325;49.284;7.238;2022-11-04T19:11:24;9.90;;;7.57;;
16430;SDS011;8325;49.284;7.238;2022-11-04T19:15:38;12.70;;;8.20;;
16430;SDS011;8325;49.284;7.238;2022-11-04T19:19:50;13.48;;;9.05;;
16430;SDS011;8325;49.284;7.238;2022-11-04T19:24:01;8.25;;;7.15;;
16430;SDS011;8325;49.284;7.238;2022-11-04T19:28:16;8.98;;;6.15;;
16430;SDS011;8325;49.284;7.238;2022-11-04T19:32:48;7.38;;;5.82;;
16430;SDS011;8325;49.284;7.238;2022-11-04T19:36:59;14.05;;;6.30;;
16430;SDS011;8325;49.284;7.238;2022-11-04T19:41:14;12.63;;;8.40;;
16430;SDS011;8325;49.284;7.238;2022-11-04T19:45:45;18.10;;;12.20;;
16430;SDS011;8325;49.284;7.238;2022-11-04T19:49:59;17.67;;;11.85;;
16430;SDS011;8325;49.284;7.238;2022-11-04T19:54:11;27.55;;;16.25;;
16430;SDS011;8325;49.284;7.238;2022-11-04T19:58:23;24.30;;;14.55;;
16430;SDS011;8325;49.284;7.238;2022-11-04T20:02:35;19.58;;;12.48;;
16430;SDS011;8325;49.284;7.238;2022-11-04T20:06:46;16.13;;;9.80;;
16430;SDS011;8325;49.284;7.238;2022-11-04T20:11:00;14.88;;;9.15;;
16430;SDS011;8325;49.284;7.238;2022-11-04T20:15:13;11.65;;;6.80;;
16430;SDS011;8325;49.284;7.238;2022-11-04T20:19:24;12.20;;;7.10;;
16430;SDS011;8325;49.284;7.238;2022-11-04T20:23:36;9.10;;;6.47;;
16430;SDS011;8325;49.284;7.238;2022-11-04T20:27:48;9.02;;;6.25;;
16430;SDS011;8325;49.284;7.238;2022-11-04T20:32:00;8.45;;;6.07;;
16430;SDS011;8325;49.284;7.238;2022-11-04T20:36:11;8.27;;;6.10;;
16430;SDS011;8325;49.284;7.238;2022-11-04T20:40:26;10.07;;;7.10;;
16430;SDS011;8325;49.284;7.238;2022-11-04T20:44:37;10.63;;;6.65;;
16430;SDS011;8325;49.284;7.238;2022-11-04T20:48:49;11.38;;;7.53;;
16430;SDS011;8325;49.284;7.238;2022-11-04T20:53:01;11.73;;;6.97;;
16430;SDS011;8325;49.284;7.238;2022-11-04T20:57:13;10.20;;;7.20;;
16430;SDS011;8325;49.284;7.238;2022-11-04T21:01:25;16.60;;;9.27;;
16430;SDS011;8325;49.284;7.238;2022-11-04T21:05:39;11.43;;;7.30;;
16430;SDS011;8325;49.284;7.238;2022-11-04T21:09:50;10.20;;;7.18;;
16430;SDS011;8325;49.284;7.238;2022-11-04T21:14:02;10.57;;;7.40;;
16430;SDS011;8325;49.284;7.238;2022-11-04T21:18:14;18.02;;;9.80;;
16430;SDS011;8325;49.284;7.238;2022-11-04T21:22:26;13.68;;;9.40;;
16430;SDS011;8325;49.284;7.238;2022-11-04T21:26:37;12.85;;;8.25;;
16430;SDS011;8325;49.284;7.238;2022-11-04T21:30:50;19.15;;;9.43;;
16430;SDS011;8325;49.284;7.238;2022-11-04T21:35:03;13.35;;;8.63;;
16430;SDS011;8325;49.284;7.238;2022-11-04T21:39:15;18.52;;;12.55;;
16430;SDS011;8325;49.284;7.238;2022-11-04T21:43:27;14.43;;;10.43;;
16430;SDS011;8325;49.284;7.238;2022-11-04T21:47:38;14.15;;;9.27;;
16430;SDS011;8325;49.284;7.238;2022-11-04T21:51:50;13.00;;;9.10;;
16430;SDS011;8325;49.284;7.238;2022-11-04T21:56:03;14.75;;;9.80;;
16430;SDS011;8325;49.284;7.238;2022-11-04T22:00:15;14.75;;;10.02;;
16430;SDS011;8325;49.284;7.238;2022-11-04T22:04:27;19.15;;;10.93;;
16430;SDS011;8325;49.284;7.238;2022-11-04T22:08:45;15.20;;;10.23;;
16430;SDS011;8325;49.284;7.238;2022-11-04T22:13:04;16.20;;;9.95;;
16430;SDS011;8325;49.284;7.238;2022-11-04T22:17:15;14.65;;;9.45;;
16430;SDS011;8325;49.284;7.238;2022-11-04T22:21:27;12.90;;;8.88;;
16430;SDS011;8325;49.284;7.238;2022-11-04T22:25:40;12.70;;;9.48;;
16430;SDS011;8325;49.284;7.238;2022-11-04T22:29:59;13.93;;;9.40;;
